Time;durP1;ratioP1;P1;durP2;ratioP2;P2;SDS_P1;SDS_P2;PMS_P1;PMS_P2;Temp;Humidity;BMP_temperature;BMP_pressure;BME280_temperature;BME280_humidity;BME280_pressure;Samples;Min_cycle;Max_cycle;Signal;HPM_P1;HPM_P2
2024/03/24 00:01:40;;;;;;;5.05;3.30;;;1.60;99.90;;;;;;5047537;28;20047;-45
2024/03/24 00:04:05;;;;;;;5.32;3.10;;;1.60;99.90;;;;;;5043368;28;20029;-41
2024/03/24 00:06:30;;;;;;;6.50;3.28;;;1.60;99.90;;;;;;5037483;28;20034;-49
2024/03/24 00:08:56;;;;;;;10.52;4.43;;;1.60;99.90;;;;;;5046171;28;20424;-51
2024/03/24 00:11:21;;;;;;;6.13;3.13;;;1.60;99.90;;;;;;5044598;28;20037;-49
2024/03/24 00:13:47;;;;;;;5.63;3.10;;;1.60;99.90;;;;;;5042377;28;20523;-47
2024/03/24 00:16:13;;;;;;;5.15;2.92;;;1.60;99.90;;;;;;5041356;28;20378;-49
2024/03/24 00:18:38;;;;;;;5.20;3.00;;;1.60;99.90;;;;;;5066730;28;20421;-49
2024/03/24 00:21:04;;;;;;;7.13;3.80;;;1.60;99.90;;;;;;5046948;28;20028;-47
2024/03/24 00:23:29;;;;;;;6.45;2.85;;;1.60;99.90;;;;;;5041112;28;20025;-50
2024/03/24 00:25:55;;;;;;;6.40;2.90;;;1.60;99.90;;;;;;5043164;28;20037;-50
2024/03/24 00:28:20;;;;;;;5.38;3.03;;;1.50;99.90;;;;;;5051651;28;20055;-50
2024/03/24 00:30:45;;;;;;;5.85;3.10;;;1.50;99.90;;;;;;5043979;28;20036;-48
2024/03/24 00:33:11;;;;;;;6.32;3.55;;;1.50;99.90;;;;;;5049611;28;20043;-52
2024/03/24 00:35:36;;;;;;;6.43;3.58;;;1.50;99.90;;;;;;5040016;28;20536;-46
2024/03/24 00:38:02;;;;;;;7.15;4.05;;;1.60;99.90;;;;;;5046771;28;20027;-48
2024/03/24 00:40:27;;;;;;;7.60;3.53;;;1.60;99.90;;;;;;5036770;28;20633;-50
2024/03/24 00:42:54;;;;;;;6.95;3.70;;;1.70;99.90;;;;;;5045698;28;20064;-50
2024/03/24 00:45:19;;;;;;;7.35;3.30;;;1.80;99.90;;;;;;5051318;28;20489;-50
2024/03/24 00:47:45;;;;;;;5.93;3.63;;;1.70;99.90;;;;;;5034025;28;20029;-50
2024/03/24 00:50:12;;;;;;;5.57;3.38;;;1.70;99.90;;;;;;5048653;28;20132;-50
2024/03/24 00:52:37;;;;;;;7.97;3.38;;;1.70;99.90;;;;;;5039647;28;20032;-48
2024/03/24 00:55:04;;;;;;;6.55;3.28;;;1.70;99.90;;;;;;5039517;28;20597;-49
2024/03/24 00:57:30;;;;;;;6.88;3.75;;;1.70;99.90;;;;;;5050357;28;20034;-52
2024/03/24 00:59:56;;;;;;;6.90;3.28;;;1.70;99.90;;;;;;5048400;28;20048;-53
2024/03/24 01:02:21;;;;;;;6.85;3.80;;;1.60;99.90;;;;;;5047209;28;20032;-48
2024/03/24 01:04:47;;;;;;;6.85;3.78;;;1.60;99.90;;;;;;5037626;28;20120;-49
2024/03/24 01:07:13;;;;;;;5.57;3.05;;;1.60;99.90;;;;;;5048362;28;20377;-50
2024/03/24 01:09:38;;;;;;;5.28;2.80;;;1.50;99.90;;;;;;5041473;28;20428;-48
2024/03/24 01:12:04;;;;;;;5.13;3.40;;;1.50;99.90;;;;;;5040472;28;20184;-50
2024/03/24 01:14:29;;;;;;;8.75;3.70;;;1.50;99.90;;;;;;5045977;28;20511;-50
2024/03/24 01:16:55;;;;;;;6.20;4.22;;;1.50;99.90;;;;;;5039662;28;20040;-52
2024/03/24 01:19:20;;;;;;;7.32;3.90;;;1.60;99.90;;;;;;5042274;28;20031;-52
2024/03/24 01:21:46;;;;;;;7.05;3.40;;;1.60;99.90;;;;;;5045978;28;20531;-50
2024/03/24 01:24:11;;;;;;;6.13;3.50;;;1.60;99.90;;;;;;5048955;28;20381;-48
2024/03/24 01:26:37;;;;;;;7.47;3.88;;;1.70;99.90;;;;;;5051709;28;20033;-50
2024/03/24 01:29:02;;;;;;;6.72;4.25;;;1.70;99.90;;;;;;5036251;28;20090;-50
2024/03/24 01:31:28;;;;;;;5.78;4.03;;;1.80;99.90;;;;;;5037092;28;20405;-49
2024/03/24 01:33:53;;;;;;;7.88;3.88;;;1.90;99.90;;;;;;5036911;28;20068;-49
2024/03/24 01:36:19;;;;;;;5.38;3.60;;;1.90;99.90;;;;;;5036099;28;20021;-50
2024/03/24 01:38:44;;;;;;;6.60;3.88;;;2.00;99.90;;;;;;5034771;28;20385;-49
2024/03/24 01:41:10;;;;;;;7.53;4.35;;;2.00;99.90;;;;;;5040686;28;20029;-49
2024/03/24 01:43:35;;;;;;;6.55;3.83;;;2.00;99.90;;;;;;5029697;28;20060;-51
2024/03/24 01:46:01;;;;;;;6.32;3.97;;;2.00;99.90;;;;;;5046630;28;20095;-46
2024/03/24 01:48:26;;;;;;;8.73;4.50;;;1.90;99.90;;;;;;5046335;28;20025;-51
2024/03/24 01:50:52;;;;;;;6.85;4.25;;;1.90;99.90;;;;;;5036055;28;20037;-49
2024/03/24 01:53:19;;;;;;;5.88;3.83;;;1.90;99.90;;;;;;5043821;28;20086;-48
2024/03/24 01:55:45;;;;;;;7.32;3.58;;;1.80;99.90;;;;;;5044591;28;20108;-50
2024/03/24 01:58:11;;;;;;;8.27;5.03;;;1.80;99.90;;;;;;5037020;28;20112;-50
2024/03/24 02:00:36;;;;;;;6.88;3.90;;;1.70;99.90;;;;;;5043581;28;20032;-49
2024/03/24 02:03:02;;;;;;;9.40;4.63;;;1.60;99.90;;;;;;5033328;28;20095;-46
2024/03/24 02:05:28;;;;;;;7.78;4.28;;;1.60;99.90;;;;;;5044409;28;20029;-48
2024/03/24 02:07:54;;;;;;;7.22;4.22;;;1.50;99.90;;;;;;5047504;28;20056;-49
2024/03/24 02:10:22;;;;;;;6.38;4.22;;;1.50;99.90;;;;;;5043798;28;20106;-49
2024/03/24 02:12:47;;;;;;;6.68;4.20;;;1.50;99.90;;;;;;5049937;28;20021;-50
2024/03/24 02:15:16;;;;;;;9.05;4.80;;;1.40;99.90;;;;;;5051131;28;20091;-51
2024/03/24 02:17:41;;;;;;;8.93;3.85;;;1.40;99.90;;;;;;5042054;28;20033;-49
2024/03/24 02:20:09;;;;;;;8.73;3.75;;;1.30;99.90;;;;;;5040011;28;20037;-48
2024/03/24 02:22:38;;;;;;;7.35;3.95;;;1.30;99.90;;;;;;5039506;28;20566;-49
2024/03/24 02:25:05;;;;;;;8.02;4.07;;;1.20;99.90;;;;;;5040035;28;20036;-49
2024/03/24 02:27:31;;;;;;;7.90;4.32;;;1.20;99.90;;;;;;5043548;28;20047;-48
2024/03/24 02:29:57;;;;;;;9.02;4.22;;;1.10;99.90;;;;;;5047335;28;20560;-48
2024/03/24 02:32:23;;;;;;;8.00;3.88;;;1.10;99.90;;;;;;5035409;28;20059;-49
2024/03/24 02:34:49;;;;;;;6.03;3.80;;;1.10;99.90;;;;;;5046528;28;20445;-49
2024/03/24 02:37:14;;;;;;;10.00;4.93;;;1.10;99.90;;;;;;5036680;28;20021;-48
2024/03/24 02:39:39;;;;;;;7.47;4.40;;;1.00;99.90;;;;;;5024191;28;20122;-50
2024/03/24 02:42:05;;;;;;;8.40;3.55;;;1.10;99.90;;;;;;5027965;28;20033;-49
2024/03/24 02:44:31;;;;;;;6.93;3.88;;;1.00;99.90;;;;;;5036831;28;20029;-49
2024/03/24 02:46:57;;;;;;;7.78;4.57;;;1.00;99.90;;;;;;5040781;28;20048;-49
2024/03/24 02:49:22;;;;;;;7.72;4.60;;;1.00;99.90;;;;;;5042569;28;20523;-52
2024/03/24 02:51:48;;;;;;;8.20;4.70;;;0.90;99.90;;;;;;5031353;28;20027;-50
2024/03/24 02:54:13;;;;;;;12.60;5.93;;;0.90;99.90;;;;;;5043205;28;20051;-49
2024/03/24 02:56:39;;;;;;;10.77;5.10;;;0.90;99.90;;;;;;5036188;28;20358;-51
2024/03/24 02:59:04;;;;;;;10.82;6.18;;;0.90;99.90;;;;;;5045717;28;20107;-53
2024/03/24 03:01:29;;;;;;;9.90;5.20;;;1.00;99.90;;;;;;5035455;28;20036;-51
2024/03/24 03:03:56;;;;;;;11.98;5.53;;;0.90;99.90;;;;;;5041312;28;20200;-51
2024/03/24 03:06:22;;;;;;;11.38;4.93;;;0.90;99.90;;;;;;5043072;28;20037;-47
2024/03/24 03:08:47;;;;;;;8.20;4.63;;;0.90;99.90;;;;;;5050487;28;20066;-49
2024/03/24 03:11:13;;;;;;;7.70;4.35;;;0.90;99.90;;;;;;5047112;28;20036;-52
2024/03/24 03:13:38;;;;;;;11.90;5.18;;;0.90;99.90;;;;;;5042543;28;20032;-48
2024/03/24 03:16:04;;;;;;;11.60;5.28;;;0.90;99.90;;;;;;5057900;28;20071;-51
2024/03/24 03:18:30;;;;;;;14.65;5.63;;;0.90;99.90;;;;;;5058805;28;20074;-47
2024/03/24 03:20:55;;;;;;;8.65;4.70;;;0.90;99.90;;;;;;5055142;28;20029;-50
2024/03/24 03:23:21;;;;;;;11.27;5.35;;;0.90;99.90;;;;;;5046775;28;20632;-52
2024/03/24 03:25:47;;;;;;;11.55;5.18;;;0.90;99.90;;;;;;5050882;28;20029;-52
2024/03/24 03:28:13;;;;;;;9.77;5.38;;;1.00;99.90;;;;;;5057599;28;20028;-49
2024/03/24 03:30:40;;;;;;;12.40;5.10;;;1.10;99.90;;;;;;5048298;28;20025;-53
2024/03/24 03:33:05;;;;;;;8.02;4.50;;;1.10;99.90;;;;;;5051162;28;20044;-50
2024/03/24 03:35:30;;;;;;;7.10;4.47;;;1.10;99.90;;;;;;5052371;28;20037;-49
2024/03/24 03:37:56;;;;;;;9.40;4.65;;;1.10;99.90;;;;;;5065122;28;20394;-51
2024/03/24 03:40:21;;;;;;;10.68;4.43;;;1.10;99.90;;;;;;5053804;28;20016;-51
2024/03/24 03:42:47;;;;;;;8.95;4.03;;;1.20;99.90;;;;;;5056300;28;20814;-47
2024/03/24 03:45:15;;;;;;;8.32;4.63;;;1.10;99.90;;;;;;5050914;28;20016;-47
2024/03/24 03:47:40;;;;;;;9.93;4.60;;;1.10;99.90;;;;;;5046394;28;20373;-49
2024/03/24 03:50:13;;;;;;;8.95;4.65;;;1.10;99.90;;;;;;5048418;28;20036;-48
2024/03/24 03:52:39;;;;;;;9.23;5.07;;;1.10;99.90;;;;;;5043590;28;20068;-53
2024/03/24 03:55:11;;;;;;;14.70;5.57;;;1.00;99.90;;;;;;5043373;28;20029;-51
2024/03/24 03:57:37;;;;;;;10.52;5.10;;;1.00;99.90;;;;;;5047382;28;20481;-49
2024/03/24 04:00:10;;;;;;;8.30;4.30;;;0.90;99.90;;;;;;5042985;28;20025;-49
2024/03/24 04:02:39;;;;;;;15.27;6.85;;;0.90;99.90;;;;;;5047288;28;20037;-49
2024/03/24 04:05:09;;;;;;;10.40;5.30;;;0.80;99.90;;;;;;5044962;28;20112;-53
2024/03/24 04:07:38;;;;;;;7.45;4.45;;;0.80;99.90;;;;;;5040791;28;20082;-50
2024/03/24 04:10:05;;;;;;;8.70;5.25;;;0.80;99.90;;;;;;5038392;28;20045;-49
2024/03/24 04:12:31;;;;;;;10.88;6.03;;;0.80;99.90;;;;;;5047307;28;20037;-46
2024/03/24 04:15:00;;;;;;;12.57;5.00;;;0.80;99.90;;;;;;5049691;28;20033;-51
2024/03/24 04:17:27;;;;;;;12.57;6.05;;;0.70;99.90;;;;;;5044179;28;20044;-47
2024/03/24 04:19:53;;;;;;;14.43;5.78;;;0.70;99.90;;;;;;5042543;28;20036;-48
2024/03/24 04:22:19;;;;;;;8.25;5.30;;;0.70;99.90;;;;;;5042384;28;20045;-50
2024/03/24 04:24:48;;;;;;;10.45;5.47;;;0.70;99.90;;;;;;5050518;28;20056;-49
2024/03/24 04:27:14;;;;;;;14.77;5.82;;;0.60;99.90;;;;;;5046527;28;20021;-47
2024/03/24 04:29:40;;;;;;;8.25;4.45;;;0.60;99.90;;;;;;5048018;28;20535;-47
2024/03/24 04:32:06;;;;;;;9.20;5.03;;;0.70;99.90;;;;;;5046888;28;20270;-47
2024/03/24 04:34:31;;;;;;;12.45;6.05;;;0.60;99.90;;;;;;5042693;28;20044;-50
2024/03/24 04:36:57;;;;;;;9.45;4.85;;;0.60;99.90;;;;;;5056554;28;20103;-48
2024/03/24 04:39:24;;;;;;;9.18;4.97;;;0.60;99.90;;;;;;5052772;28;20032;-52
2024/03/24 04:41:49;;;;;;;11.43;5.40;;;0.60;99.90;;;;;;5050360;28;20082;-48
2024/03/24 04:44:15;;;;;;;16.55;7.55;;;0.60;99.90;;;;;;5047042;28;20025;-50
2024/03/24 04:46:40;;;;;;;9.70;5.65;;;0.60;99.90;;;;;;5047650;28;20400;-50
2024/03/24 04:49:06;;;;;;;9.02;5.43;;;0.60;99.90;;;;;;5042477;28;20033;-48
2024/03/24 04:51:31;;;;;;;11.20;5.22;;;0.60;99.90;;;;;;5051767;28;20044;-49
2024/03/24 04:53:57;;;;;;;11.82;6.03;;;0.60;99.90;;;;;;5055072;28;20511;-48
2024/03/24 04:56:23;;;;;;;12.50;5.97;;;0.60;99.90;;;;;;5047714;28;20025;-49
2024/03/24 04:58:49;;;;;;;10.23;5.15;;;0.70;99.90;;;;;;5047268;28;20051;-50
2024/03/24 05:01:15;;;;;;;13.05;6.80;;;0.70;99.90;;;;;;5052540;28;20090;-48
2024/03/24 05:03:40;;;;;;;13.38;6.57;;;0.80;99.90;;;;;;5046278;28;20192;-49
2024/03/24 05:06:06;;;;;;;14.93;7.00;;;0.80;99.90;;;;;;5051909;28;20413;-46
2024/03/24 05:08:33;;;;;;;13.57;6.90;;;0.90;99.90;;;;;;5046446;28;20044;-47
2024/03/24 05:11:05;;;;;;;14.80;7.63;;;1.00;99.90;;;;;;5045155;28;20028;-49
2024/03/24 05:13:33;;;;;;;12.48;6.75;;;1.00;99.90;;;;;;5042155;28;20060;-50
2024/03/24 05:15:58;;;;;;;14.10;6.95;;;1.10;99.90;;;;;;5043845;28;20029;-46
2024/03/24 05:18:24;;;;;;;15.25;8.32;;;1.30;99.90;;;;;;5039092;28;20063;-50
2024/03/24 05:20:50;;;;;;;11.77;6.78;;;1.40;99.90;;;;;;5044669;28;20083;-49
2024/03/24 05:23:18;;;;;;;13.88;6.68;;;1.60;99.90;;;;;;5045084;28;20097;-49
2024/03/24 05:25:51;;;;;;;10.73;6.65;;;1.70;99.90;;;;;;5035379;28;20108;-47
2024/03/24 05:28:17;;;;;;;15.18;6.95;;;1.80;99.90;;;;;;5035770;28;20529;-48
2024/03/24 05:30:42;;;;;;;14.48;6.47;;;1.90;99.90;;;;;;5040635;28;22113;-52
2024/03/24 05:33:09;;;;;;;10.65;6.70;;;2.10;99.90;;;;;;5036831;28;20655;-48
2024/03/24 05:35:34;;;;;;;11.13;6.05;;;2.20;99.90;;;;;;5038518;28;20366;-48
2024/03/24 05:38:00;;;;;;;10.13;6.30;;;2.30;99.90;;;;;;5040600;28;20028;-46
2024/03/24 05:40:25;;;;;;;12.60;5.60;;;2.30;99.90;;;;;;5033822;28;20029;-52
2024/03/24 05:42:51;;;;;;;7.68;4.75;;;2.40;99.90;;;;;;5039046;28;20337;-49
2024/03/24 05:45:16;;;;;;;11.48;7.10;;;2.50;99.90;;;;;;5062141;28;20023;-47
2024/03/24 05:47:43;;;;;;;10.10;6.40;;;2.60;99.90;;;;;;5032068;28;20224;-51
2024/03/24 05:50:08;;;;;;;11.98;6.03;;;2.60;99.90;;;;;;5043447;28;20483;-50
2024/03/24 05:52:36;;;;;;;11.10;6.60;;;2.70;99.90;;;;;;5038587;28;20032;-51
2024/03/24 05:55:04;;;;;;;12.15;6.90;;;2.80;99.90;;;;;;5036812;28;20048;-51
2024/03/24 05:57:30;;;;;;;10.75;5.97;;;2.80;99.90;;;;;;5044034;28;20036;-47
2024/03/24 05:59:56;;;;;;;10.73;6.18;;;2.80;99.90;;;;;;5050146;28;20028;-47
2024/03/24 06:02:21;;;;;;;11.10;6.63;;;2.80;99.90;;;;;;5039719;28;20043;-51
2024/03/24 06:04:47;;;;;;;17.58;7.40;;;2.90;99.90;;;;;;5041879;28;20177;-52
2024/03/24 06:07:12;;;;;;;12.88;6.38;;;3.00;99.90;;;;;;5040958;28;20808;-51
2024/03/24 06:09:38;;;;;;;9.40;6.05;;;3.10;99.90;;;;;;5040775;28;20117;-46
2024/03/24 06:12:04;;;;;;;12.80;5.85;;;3.20;99.90;;;;;;5054142;28;20033;-58
2024/03/24 06:14:30;;;;;;;10.45;6.30;;;3.20;99.90;;;;;;5036991;28;20029;-57
2024/03/24 06:16:55;;;;;;;12.30;6.18;;;3.30;99.90;;;;;;5040066;28;20039;-57
2024/03/24 06:19:21;;;;;;;10.93;5.97;;;3.40;99.90;;;;;;5038101;28;20032;-57
2024/03/24 06:21:46;;;;;;;8.65;5.32;;;3.50;99.90;;;;;;5045121;28;20037;-57
2024/03/24 06:24:12;;;;;;;7.50;4.65;;;3.60;99.90;;;;;;5043943;28;20534;-56
2024/03/24 06:26:37;;;;;;;8.00;5.57;;;3.60;99.90;;;;;;5048254;28;20037;-57
2024/03/24 06:29:03;;;;;;;9.23;5.18;;;3.80;99.90;;;;;;5038935;28;20443;-58
2024/03/24 06:31:28;;;;;;;10.45;5.13;;;4.00;99.90;;;;;;5034660;28;20039;-57
2024/03/24 06:33:56;;;;;;;7.30;4.43;;;4.50;99.90;;;;;;5036267;28;20397;-57
2024/03/24 06:36:22;;;;;;;9.05;4.82;;;5.00;99.90;;;;;;5041566;28;20104;-58
2024/03/24 06:38:47;;;;;;;10.98;5.60;;;5.30;99.90;;;;;;5043634;28;20564;-56
2024/03/24 06:41:13;;;;;;;7.85;4.85;;;5.30;99.90;;;;;;5043367;28;20115;-57
2024/03/24 06:43:42;;;;;;;6.38;4.68;;;5.40;99.90;;;;;;5041186;28;20456;-57
2024/03/24 06:46:10;;;;;;;7.53;5.25;;;5.40;99.90;;;;;;5054171;28;20278;-57
2024/03/24 06:48:36;;;;;;;6.88;4.63;;;5.40;99.90;;;;;;5045167;28;20485;-57
2024/03/24 06:51:05;;;;;;;6.65;4.32;;;5.40;99.90;;;;;;5037478;28;20032;-55
2024/03/24 06:53:31;;;;;;;6.53;4.10;;;5.40;99.90;;;;;;5037562;28;20055;-55
2024/03/24 06:55:56;;;;;;;5.25;3.72;;;5.50;99.90;;;;;;5041983;28;20628;-57
2024/03/24 06:58:21;;;;;;;6.90;4.15;;;5.90;99.90;;;;;;5043234;28;20032;-57
2024/03/24 07:00:53;;;;;;;7.10;4.05;;;6.20;99.90;;;;;;5043420;28;20043;-58
2024/03/24 07:03:22;;;;;;;6.78;4.10;;;6.50;99.90;;;;;;5035499;28;20037;-58
2024/03/24 07:05:47;;;;;;;4.78;3.28;;;7.00;99.90;;;;;;5028892;28;20036;-57
2024/03/24 07:08:12;;;;;;;5.90;3.72;;;7.10;99.90;;;;;;5039562;28;20055;-57
2024/03/24 07:10:38;;;;;;;5.90;3.92;;;7.10;99.90;;;;;;5043407;28;20450;-57
2024/03/24 07:13:03;;;;;;;4.40;3.60;;;7.50;99.90;;;;;;5039225;28;20041;-57
2024/03/24 07:15:29;;;;;;;6.88;4.20;;;8.10;99.90;;;;;;5037791;28;20095;-59
2024/03/24 07:17:54;;;;;;;4.68;3.70;;;8.30;99.90;;;;;;5035406;28;20039;-57
2024/03/24 07:20:20;;;;;;;3.80;2.90;;;9.10;99.90;;;;;;5045513;28;20047;-55
2024/03/24 07:22:45;;;;;;;3.75;3.00;;;9.70;99.90;;;;;;5040756;28;20025;-57
2024/03/24 07:25:12;;;;;;;4.90;2.50;;;10.20;99.90;;;;;;5043937;28;20032;-57
2024/03/24 07:27:38;;;;;;;4.45;2.95;;;10.60;97.20;;;;;;5036724;28;20068;-57
2024/03/24 07:30:06;;;;;;;3.40;2.10;;;11.30;97.90;;;;;;5038116;28;20528;-56
2024/03/24 07:32:32;;;;;;;3.75;2.78;;;11.50;95.40;;;;;;5035360;28;20017;-58
2024/03/24 07:34:57;;;;;;;2.72;2.20;;;11.70;97.10;;;;;;5041555;28;20033;-57
2024/03/24 07:37:23;;;;;;;2.22;2.03;;;12.10;94.90;;;;;;5037055;28;20048;-58
2024/03/24 07:39:49;;;;;;;5.63;2.30;;;12.20;93.70;;;;;;5034766;28;20087;-57
2024/03/24 07:42:14;;;;;;;3.22;1.90;;;12.70;93.30;;;;;;5038544;28;20036;-58
2024/03/24 07:44:40;;;;;;;5.03;2.30;;;13.00;92.70;;;;;;5039203;28;20025;-58
2024/03/24 07:47:06;;;;;;;2.80;1.80;;;13.00;90.00;;;;;;5040879;28;20053;-57
2024/03/24 07:49:33;;;;;;;3.40;1.83;;;12.70;87.70;;;;;;5044119;28;20091;-57
2024/03/24 07:51:58;;;;;;;2.70;1.80;;;12.90;86.70;;;;;;5046106;28;20055;-57
2024/03/24 07:54:24;;;;;;;2.78;1.83;;;13.60;88.80;;;;;;5048455;28;20017;-57
2024/03/24 07:56:49;;;;;;;3.95;2.47;;;13.50;86.40;;;;;;5050629;28;20024;-58
2024/03/24 07:59:17;;;;;;;3.10;2.13;;;12.90;82.40;;;;;;5040048;28;20028;-58
2024/03/24 08:01:43;;;;;;;2.72;2.35;;;12.10;76.50;;;;;;5047675;28;20184;-58
2024/03/24 08:04:08;;;;;;;3.75;2.20;;;11.40;77.60;;;;;;5043767;28;20118;-58
2024/03/24 08:06:34;;;;;;;3.53;1.98;;;10.90;76.40;;;;;;5043748;28;20048;-58
2024/03/24 08:08:59;;;;;;;3.65;1.77;;;10.60;77.10;;;;;;5038451;28;20119;-58
2024/03/24 08:11:25;;;;;;;2.85;1.98;;;11.00;77.60;;;;;;5044551;28;20484;-58
2024/03/24 08:13:51;;;;;;;5.00;2.20;;;11.30;77.00;;;;;;5044048;28;20065;-57
2024/03/24 08:16:16;;;;;;;5.90;2.05;;;11.60;72.70;;;;;;5042480;28;20013;-59
2024/03/24 08:18:41;;;;;;;2.33;1.83;;;12.00;76.00;;;;;;5060041;28;20029;-57
2024/03/24 08:21:07;;;;;;;3.58;2.08;;;12.60;76.60;;;;;;5043187;28;20069;-57
2024/03/24 08:23:32;;;;;;;2.13;1.83;;;12.90;70.80;;;;;;5044385;28;20747;-58
2024/03/24 08:25:58;;;;;;;3.22;1.65;;;12.80;67.30;;;;;;5046404;28;20139;-58
2024/03/24 08:28:24;;;;;;;2.50;1.67;;;12.80;69.30;;;;;;5044510;28;20028;-58
2024/03/24 08:30:49;;;;;;;3.75;1.83;;;12.90;68.00;;;;;;5039725;28;20032;-58
2024/03/24 08:33:15;;;;;;;2.13;1.55;;;12.80;64.40;;;;;;5043037;28;20033;-58
2024/03/24 08:35:40;;;;;;;2.10;1.33;;;12.60;66.80;;;;;;5044898;28;20076;-58
2024/03/24 08:38:05;;;;;;;4.00;2.05;;;13.20;68.60;;;;;;5042807;28;20024;-59
2024/03/24 08:40:31;;;;;;;6.50;2.05;;;13.10;68.90;;;;;;5046077;28;20087;-58
2024/03/24 08:42:56;;;;;;;2.67;1.90;;;12.90;65.00;;;;;;5045700;28;20401;-57
2024/03/24 08:45:22;;;;;;;1.98;1.73;;;12.80;64.90;;;;;;5041509;28;20075;-58
2024/03/24 08:47:47;;;;;;;2.08;1.80;;;12.80;62.70;;;;;;5041712;28;20025;-58
2024/03/24 08:50:13;;;;;;;3.25;1.70;;;12.80;64.80;;;;;;5049822;28;20021;-58
2024/03/24 08:52:38;;;;;;;2.63;1.77;;;12.50;63.30;;;;;;5052465;28;20506;-58
2024/03/24 08:55:04;;;;;;;2.58;1.67;;;12.70;64.00;;;;;;5048238;28;20032;-59
2024/03/24 08:57:30;;;;;;;2.45;1.73;;;12.50;63.90;;;;;;5044277;28;20029;-58
2024/03/24 08:59:57;;;;;;;4.97;1.88;;;12.30;63.30;;;;;;5047343;28;20051;-59
2024/03/24 09:02:23;;;;;;;2.80;1.65;;;12.40;64.00;;;;;;5046003;28;20088;-59
2024/03/24 09:04:53;;;;;;;2.90;1.83;;;12.40;64.20;;;;;;5043614;28;20036;-58
2024/03/24 09:07:22;;;;;;;4.07;2.72;;;12.60;63.10;;;;;;5047945;28;20017;-58
2024/03/24 09:09:48;;;;;;;3.05;2.00;;;12.40;61.60;;;;;;5041756;28;20049;-62
2024/03/24 09:12:14;;;;;;;2.70;1.83;;;12.20;60.90;;;;;;5043446;28;20330;-59
2024/03/24 09:14:40;;;;;;;3.03;1.98;;;12.20;61.90;;;;;;5043432;28;20035;-59
2024/03/24 09:17:05;;;;;;;3.97;1.90;;;12.10;61.30;;;;;;5039299;28;20032;-59
2024/03/24 09:19:31;;;;;;;2.45;1.60;;;12.00;60.60;;;;;;5033924;28;20074;-59
2024/03/24 09:21:56;;;;;;;3.15;1.80;;;12.00;61.00;;;;;;5043200;28;20464;-59
2024/03/24 09:24:22;;;;;;;2.55;1.92;;;11.80;59.70;;;;;;5041952;28;20025;-59
2024/03/24 09:26:49;;;;;;;2.60;1.60;;;11.60;60.60;;;;;;5046553;28;20052;-60
2024/03/24 09:29:14;;;;;;;4.05;1.77;;;11.60;61.00;;;;;;5036406;28;20031;-59
2024/03/24 09:31:40;;;;;;;5.78;1.75;;;11.50;60.60;;;;;;5044895;28;20029;-60
2024/03/24 09:34:05;;;;;;;2.70;1.77;;;11.40;60.30;;;;;;5040131;28;20024;-59
2024/03/24 09:36:31;;;;;;;6.88;2.22;;;11.50;61.60;;;;;;5045659;28;20316;-59
2024/03/24 09:38:56;;;;;;;2.28;1.85;;;11.30;60.20;;;;;;5034102;28;20447;-59
2024/03/24 09:41:26;;;;;;;5.25;3.03;;;11.30;59.70;;;;;;5050563;28;20124;-60
2024/03/24 09:43:52;;;;;;;13.77;5.65;;;11.10;59.30;;;;;;5039029;28;20397;-59
2024/03/24 09:46:18;;;;;;;7.30;3.65;;;11.30;60.20;;;;;;5040655;28;20029;-60
2024/03/24 09:48:45;;;;;;;5.38;2.90;;;11.70;60.70;;;;;;5036547;28;20037;-60
2024/03/24 09:51:10;;;;;;;4.55;2.50;;;12.00;60.80;;;;;;5039134;28;20067;-60
2024/03/24 09:53:37;;;;;;;6.50;3.15;;;12.40;61.00;;;;;;5036964;28;20551;-61
2024/03/24 09:56:07;;;;;;;2.83;1.92;;;12.60;56.30;;;;;;5046069;28;20063;-61
2024/03/24 09:58:34;;;;;;;3.88;1.88;;;12.40;56.80;;;;;;5043040;28;20020;-61
2024/03/24 10:01:00;;;;;;;3.83;2.03;;;12.30;57.50;;;;;;5043864;28;20029;-61
2024/03/24 10:03:25;;;;;;;3.67;1.88;;;11.90;57.20;;;;;;5043281;28;20044;-60
2024/03/24 10:05:51;;;;;;;2.55;1.73;;;11.60;57.70;;;;;;5049788;28;20024;-61
2024/03/24 10:08:17;;;;;;;4.53;2.15;;;11.30;58.40;;;;;;5063234;28;20031;-60
2024/03/24 10:10:42;;;;;;;5.07;2.30;;;10.90;58.40;;;;;;5043916;28;20043;-60
2024/03/24 10:13:10;;;;;;;5.45;2.47;;;10.50;59.20;;;;;;5045442;28;20396;-60
2024/03/24 10:15:35;;;;;;;2.92;1.85;;;10.10;60.80;;;;;;5043913;28;20032;-62
2024/03/24 10:18:14;;;;;;;5.32;2.00;;;9.90;62.80;;;;;;5037303;28;20381;-66
2024/03/24 10:20:40;;;;;;;6.85;2.42;;;9.70;64.20;;;;;;5044883;28;20024;-61
2024/03/24 10:23:05;;;;;;;2.95;1.80;;;9.50;65.50;;;;;;5046209;28;20029;-65
2024/03/24 10:25:32;;;;;;;3.40;1.92;;;9.30;66.60;;;;;;5046105;28;20025;-61
2024/03/24 10:27:59;;;;;;;3.80;2.17;;;9.10;67.70;;;;;;5039519;28;20112;-61
2024/03/24 10:30:25;;;;;;;3.47;2.25;;;9.00;69.20;;;;;;5040068;28;20028;-61
2024/03/24 10:32:51;;;;;;;3.03;2.05;;;8.90;69.90;;;;;;5040470;28;20025;-59
2024/03/24 10:35:19;;;;;;;1.88;1.55;;;9.00;70.40;;;;;;5040131;28;20025;-59
2024/03/24 10:37:46;;;;;;;5.95;2.25;;;9.00;70.70;;;;;;5044628;28;20025;-59
2024/03/24 10:40:14;;;;;;;3.42;2.03;;;8.90;71.10;;;;;;5053935;28;20021;-58
2024/03/24 10:42:52;;;;;;;2.53;1.70;;;8.90;71.80;;;;;;5040909;28;20424;-60
2024/03/24 10:45:26;;;;;;;3.67;2.08;;;8.90;72.20;;;;;;5048245;28;20035;-58
2024/03/24 10:48:08;;;;;;;4.20;2.10;;;8.80;72.70;;;;;;5048550;28;20095;-59
2024/03/24 10:50:36;;;;;;;3.40;2.33;;;8.70;74.10;;;;;;5046185;28;20036;-58
2024/03/24 10:53:03;;;;;;;5.20;2.55;;;8.70;74.60;;;;;;5060299;28;20493;-59
2024/03/24 10:55:29;;;;;;;3.88;2.70;;;8.50;74.70;;;;;;5043844;28;20508;-58
2024/03/24 10:57:55;;;;;;;4.32;2.15;;;8.30;75.80;;;;;;5062455;28;20097;-58
2024/03/24 11:00:27;;;;;;;5.85;2.20;;;8.10;76.10;;;;;;5054786;28;20025;-59
2024/03/24 11:02:57;;;;;;;2.97;1.90;;;8.00;77.00;;;;;;5052141;28;20120;-58
2024/03/24 11:05:24;;;;;;;1.90;1.30;;;7.90;78.00;;;;;;5047796;28;20021;-58
2024/03/24 11:07:50;;;;;;;2.38;1.50;;;7.80;78.90;;;;;;5039882;28;20052;-57
2024/03/24 11:10:16;;;;;;;2.67;1.67;;;7.80;79.80;;;;;;5041430;28;20048;-58
2024/03/24 11:12:42;;;;;;;3.72;1.80;;;7.70;80.20;;;;;;5043099;28;20032;-58
2024/03/24 11:15:10;;;;;;;2.00;1.50;;;7.50;81.50;;;;;;5050819;28;20036;-58
2024/03/24 11:17:36;;;;;;;3.13;1.77;;;7.50;81.90;;;;;;5051148;28;20120;-58
2024/03/24 11:20:05;;;;;;;3.95;2.10;;;7.30;82.70;;;;;;5052985;28;20103;-58
2024/03/24 11:22:44;;;;;;;5.20;2.47;;;7.10;83.40;;;;;;5039290;28;20067;-58
2024/03/24 11:25:10;;;;;;;4.07;2.10;;;7.00;84.50;;;;;;5058888;28;20028;-58
2024/03/24 11:27:42;;;;;;;2.28;1.67;;;6.80;85.50;;;;;;5043619;28;20388;-58
2024/03/24 11:30:14;;;;;;;3.47;1.90;;;6.80;87.30;;;;;;5043565;28;20611;-57
2024/03/24 11:32:51;;;;;;;3.50;2.08;;;6.80;87.80;;;;;;5054008;28;20369;-58
2024/03/24 11:35:29;;;;;;;4.43;3.00;;;6.90;88.70;;;;;;5050908;28;20082;-58
2024/03/24 11:37:57;;;;;;;2.17;1.98;;;6.90;89.80;;;;;;5055131;28;20025;-58
2024/03/24 11:40:24;;;;;;;2.33;2.13;;;6.90;90.90;;;;;;5041840;28;20484;-58
2024/03/24 11:42:56;;;;;;;3.58;2.38;;;6.90;90.70;;;;;;5043353;28;20055;-58
2024/03/24 11:45:26;;;;;;;4.38;2.80;;;6.90;91.30;;;;;;5062862;28;20029;-58
2024/03/24 11:48:12;;;;;;;3.58;2.60;;;6.90;91.40;;;;;;5042599;28;20215;-58
2024/03/24 11:50:38;;;;;;;4.72;2.55;;;6.90;92.00;;;;;;5040905;28;20073;-58
2024/03/24 11:53:05;;;;;;;3.60;2.38;;;6.90;92.60;;;;;;5047633;28;20020;-58
2024/03/24 11:55:31;;;;;;;5.20;2.60;;;6.90;93.10;;;;;;5038899;28;20029;-58
2024/03/24 11:57:56;;;;;;;4.68;2.28;;;7.00;93.00;;;;;;5043617;28;20025;-58
2024/03/24 12:00:22;;;;;;;4.25;2.70;;;7.00;94.20;;;;;;5041484;28;20025;-59
2024/03/24 12:02:48;;;;;;;2.67;2.42;;;7.10;93.60;;;;;;5041709;28;20048;-58
2024/03/24 12:05:14;;;;;;;3.22;2.22;;;7.20;93.70;;;;;;5045525;28;20026;-58
2024/03/24 12:07:39;;;;;;;3.25;2.92;;;7.40;94.10;;;;;;5047196;28;20020;-58
2024/03/24 12:10:06;;;;;;;3.70;2.47;;;7.40;94.40;;;;;;5058790;28;20041;-58
2024/03/24 12:12:31;;;;;;;3.13;2.85;;;7.50;93.70;;;;;;5048728;28;20025;-59
2024/03/24 12:14:57;;;;;;;7.07;3.40;;;7.70;93.70;;;;;;5039308;28;20029;-56
2024/03/24 12:17:23;;;;;;;4.70;2.88;;;7.60;93.70;;;;;;5038833;28;20025;-59
2024/03/24 12:19:48;;;;;;;4.45;3.53;;;7.50;93.60;;;;;;5047628;28;20032;-59
2024/03/24 12:22:14;;;;;;;5.95;3.55;;;7.50;93.90;;;;;;5047027;28;20056;-60
2024/03/24 12:24:39;;;;;;;7.65;3.50;;;7.40;94.90;;;;;;5043186;28;20033;-57
2024/03/24 12:27:05;;;;;;;4.57;3.17;;;7.40;95.70;;;;;;5052554;28;20032;-59
2024/03/24 12:29:30;;;;;;;5.00;3.00;;;7.50;96.30;;;;;;5039310;28;20037;-59
2024/03/24 12:31:58;;;;;;;5.93;3.15;;;7.50;96.50;;;;;;5054309;28;20025;-59
2024/03/24 12:34:26;;;;;;;4.50;2.42;;;7.40;96.20;;;;;;5049955;28;20021;-59
2024/03/24 12:36:52;;;;;;;4.00;2.72;;;7.30;97.20;;;;;;5043851;28;20512;-59
2024/03/24 12:39:18;;;;;;;3.42;2.60;;;7.20;97.60;;;;;;5043149;28;20029;-59
2024/03/24 12:41:43;;;;;;;5.40;2.85;;;7.10;97.60;;;;;;5043973;28;20021;-60
2024/03/24 12:44:09;;;;;;;2.28;2.00;;;7.10;97.60;;;;;;5044176;28;20029;-59
2024/03/24 12:46:35;;;;;;;6.07;2.25;;;7.10;97.70;;;;;;5042175;28;20393;-59
2024/03/24 12:49:16;;;;;;;4.57;2.40;;;7.00;97.80;;;;;;5046300;28;20052;-59